sensor_id;sensor_type;location;lat;lon;timestamp;P1;durP1;ratioP1;P2;durP2;ratioP2
41311;SDS011;27061;41.648;24.568;2023-06-26T00:00:08;21.90;;;7.65;;
41311;SDS011;27061;41.648;24.568;2023-06-26T00:02:37;17.27;;;8.35;;
41311;SDS011;27061;41.648;24.568;2023-06-26T00:05:05;20.77;;;9.95;;
41311;SDS011;27061;41.648;24.568;2023-06-26T00:07:33;19.73;;;9.05;;
41311;SDS011;27061;41.648;24.568;2023-06-26T00:10:03;77.68;;;22.58;;
41311;SDS011;27061;41.648;24.568;2023-06-26T00:12:36;25.05;;;9.02;;
41311;SDS011;27061;41.648;24.568;2023-06-26T00:15:03;10.20;;;6.63;;
41311;SDS011;27061;41.648;24.568;2023-06-26T00:17:31;18.42;;;7.45;;
41311;SDS011;27061;41.648;24.568;2023-06-26T00:20:03;13.00;;;6.50;;
41311;SDS011;27061;41.648;24.568;2023-06-26T00:22:36;12.02;;;7.43;;
41311;SDS011;27061;41.648;24.568;2023-06-26T00:25:07;54.30;;;17.73;;
41311;SDS011;27061;41.648;24.568;2023-06-26T00:27:35;13.05;;;7.20;;
41311;SDS011;27061;41.648;24.568;2023-06-26T00:30:03;20.08;;;8.68;;
41311;SDS011;27061;41.648;24.568;2023-06-26T00:32:30;20.13;;;9.10;;
41311;SDS011;27061;41.648;24.568;2023-06-26T00:35:00;11.93;;;7.88;;
41311;SDS011;27061;41.648;24.568;2023-06-26T00:37:28;16.95;;;7.43;;
41311;SDS011;27061;41.648;24.568;2023-06-26T00:39:55;15.43;;;7.50;;
41311;SDS011;27061;41.648;24.568;2023-06-26T00:42:22;16.67;;;7.40;;
41311;SDS011;27061;41.648;24.568;2023-06-26T00:44:49;21.08;;;9.02;;
41311;SDS011;27061;41.648;24.568;2023-06-26T00:47:16;19.63;;;8.48;;
41311;SDS011;27061;41.648;24.568;2023-06-26T00:49:44;14.32;;;8.00;;
41311;SDS011;27061;41.648;24.568;2023-06-26T00:52:11;11.00;;;7.30;;
41311;SDS011;27061;41.648;24.568;2023-06-26T00:54:41;12.50;;;7.60;;
41311;SDS011;27061;41.648;24.568;2023-06-26T00:57:08;14.90;;;6.90;;
41311;SDS011;27061;41.648;24.568;2023-06-26T00:59:35;13.82;;;7.95;;
41311;SDS011;27061;41.648;24.568;2023-06-26T01:02:03;11.00;;;7.25;;
41311;SDS011;27061;41.648;24.568;2023-06-26T01:04:31;15.40;;;8.40;;
41311;SDS011;27061;41.648;24.568;2023-06-26T01:06:59;20.00;;;7.32;;
41311;SDS011;27061;41.648;24.568;2023-06-26T01:09:28;53.10;;;17.67;;
41311;SDS011;27061;41.648;24.568;2023-06-26T01:11:55;15.93;;;8.13;;
41311;SDS011;27061;41.648;24.568;2023-06-26T01:14:23;16.55;;;7.47;;
41311;SDS011;27061;41.648;24.568;2023-06-26T01:16:50;16.30;;;8.27;;
41311;SDS011;27061;41.648;24.568;2023-06-26T01:19:19;13.18;;;7.60;;
41311;SDS011;27061;41.648;24.568;2023-06-26T01:21:58;11.88;;;6.97;;
41311;SDS011;27061;41.648;24.568;2023-06-26T01:24:56;16.60;;;9.05;;
41311;SDS011;27061;41.648;24.568;2023-06-26T01:27:35;10.75;;;7.78;;
41311;SDS011;27061;41.648;24.568;2023-06-26T01:30:03;16.83;;;9.13;;
41311;SDS011;27061;41.648;24.568;2023-06-26T01:32:34;19.40;;;8.73;;
41311;SDS011;27061;41.648;24.568;2023-06-26T01:35:02;12.30;;;8.45;;
41311;SDS011;27061;41.648;24.568;2023-06-26T01:37:32;18.15;;;8.70;;
41311;SDS011;27061;41.648;24.568;2023-06-26T01:39:59;18.13;;;9.25;;
41311;SDS011;27061;41.648;24.568;2023-06-26T01:42:26;31.20;;;11.43;;
41311;SDS011;27061;41.648;24.568;2023-06-26T01:44:54;16.55;;;9.27;;
41311;SDS011;27061;41.648;24.568;2023-06-26T01:47:24;35.85;;;12.77;;
41311;SDS011;27061;41.648;24.568;2023-06-26T01:50:41;12.98;;;8.90;;
41311;SDS011;27061;41.648;24.568;2023-06-26T01:52:53;15.93;;;8.38;;
41311;SDS011;27061;41.648;24.568;2023-06-26T01:58:24;11.13;;;8.70;;
41311;SDS011;27061;41.648;24.568;2023-06-26T02:00:52;15.32;;;7.95;;
41311;SDS011;27061;41.648;24.568;2023-06-26T02:03:20;13.55;;;8.07;;
41311;SDS011;27061;41.648;24.568;2023-06-26T02:05:47;13.25;;;8.25;;
41311;SDS011;27061;41.648;24.568;2023-06-26T02:08:14;15.60;;;9.07;;
41311;SDS011;27061;41.648;24.568;2023-06-26T02:10:47;20.50;;;8.15;;
41311;SDS011;27061;41.648;24.568;2023-06-26T02:13:15;13.00;;;8.25;;
41311;SDS011;27061;41.648;24.568;2023-06-26T02:15:43;13.50;;;7.50;;
41311;SDS011;27061;41.648;24.568;2023-06-26T02:18:10;10.95;;;7.32;;
41311;SDS011;27061;41.648;24.568;2023-06-26T02:20:37;19.25;;;8.82;;
41311;SDS011;27061;41.648;24.568;2023-06-26T02:23:04;11.10;;;8.30;;
41311;SDS011;27061;41.648;24.568;2023-06-26T02:25:34;17.60;;;7.90;;
41311;SDS011;27061;41.648;24.568;2023-06-26T02:28:01;9.80;;;7.50;;
41311;SDS011;27061;41.648;24.568;2023-06-26T02:30:28;15.55;;;8.27;;
41311;SDS011;27061;41.648;24.568;2023-06-26T02:32:58;10.50;;;6.85;;
41311;SDS011;27061;41.648;24.568;2023-06-26T02:35:25;13.18;;;7.80;;
41311;SDS011;27061;41.648;24.568;2023-06-26T02:37:53;15.35;;;8.27;;
41311;SDS011;27061;41.648;24.568;2023-06-26T02:40:20;14.40;;;8.27;;
41311;SDS011;27061;41.648;24.568;2023-06-26T02:42:47;18.17;;;8.07;;
41311;SDS011;27061;41.648;24.568;2023-06-26T02:45:16;18.65;;;7.88;;
41311;SDS011;27061;41.648;24.568;2023-06-26T02:47:43;17.45;;;7.93;;
41311;SDS011;27061;41.648;24.568;2023-06-26T02:50:11;25.27;;;9.77;;
41311;SDS011;27061;41.648;24.568;2023-06-26T02:53:03;46.63;;;14.43;;
41311;SDS011;27061;41.648;24.568;2023-06-26T02:55:31;13.50;;;8.23;;
41311;SDS011;27061;41.648;24.568;2023-06-26T02:57:58;13.70;;;8.70;;
41311;SDS011;27061;41.648;24.568;2023-06-26T03:00:25;20.23;;;9.65;;
41311;SDS011;27061;41.648;24.568;2023-06-26T03:02:53;16.00;;;8.88;;
41311;SDS011;27061;41.648;24.568;2023-06-26T03:05:21;12.43;;;7.68;;
41311;SDS011;27061;41.648;24.568;2023-06-26T03:07:51;14.73;;;7.38;;
41311;SDS011;27061;41.648;24.568;2023-06-26T03:10:18;9.52;;;7.30;;
41311;SDS011;27061;41.648;24.568;2023-06-26T03:12:45;12.02;;;6.90;;
41311;SDS011;27061;41.648;24.568;2023-06-26T03:15:12;16.42;;;7.85;;
41311;SDS011;27061;41.648;24.568;2023-06-26T03:17:40;10.10;;;7.32;;
41311;SDS011;27061;41.648;24.568;2023-06-26T03:20:11;8.77;;;7.38;;
41311;SDS011;27061;41.648;24.568;2023-06-26T03:22:46;10.93;;;7.55;;
41311;SDS011;27061;41.648;24.568;2023-06-26T03:25:15;24.92;;;10.85;;
41311;SDS011;27061;41.648;24.568;2023-06-26T03:27:42;20.80;;;8.73;;
41311;SDS011;27061;41.648;24.568;2023-06-26T03:30:10;17.20;;;9.23;;
41311;SDS011;27061;41.648;24.568;2023-06-26T03:32:39;12.38;;;8.45;;
41311;SDS011;27061;41.648;24.568;2023-06-26T03:35:07;11.95;;;7.50;;
41311;SDS011;27061;41.648;24.568;2023-06-26T03:37:34;19.10;;;8.15;;
41311;SDS011;27061;41.648;24.568;2023-06-26T03:40:01;14.25;;;7.85;;
41311;SDS011;27061;41.648;24.568;2023-06-26T03:42:31;20.45;;;9.48;;
41311;SDS011;27061;41.648;24.568;2023-06-26T03:44:58;15.40;;;8.52;;
41311;SDS011;27061;41.648;24.568;2023-06-26T03:47:27;14.50;;;8.75;;
41311;SDS011;27061;41.648;24.568;2023-06-26T03:49:55;8.80;;;7.43;;
41311;SDS011;27061;41.648;24.568;2023-06-26T03:52:22;15.10;;;8.77;;
41311;SDS011;27061;41.648;24.568;2023-06-26T03:54:50;12.38;;;7.88;;
41311;SDS011;27061;41.648;24.568;2023-06-26T03:57:17;18.15;;;8.95;;
41311;SDS011;27061;41.648;24.568;2023-06-26T03:59:46;14.05;;;8.13;;
41311;SDS011;27061;41.648;24.568;2023-06-26T04:02:14;17.42;;;7.90;;
41311;SDS011;27061;41.648;24.568;2023-06-26T04:04:42;15.48;;;8.18;;
41311;SDS011;27061;41.648;24.568;2023-06-26T04:07:09;104.05;;;30.83;;
41311;SDS011;27061;41.648;24.568;2023-06-26T04:09:37;15.25;;;9.35;;
41311;SDS011;27061;41.648;24.568;2023-06-26T04:12:06;17.88;;;8.43;;
41311;SDS011;27061;41.648;24.568;2023-06-26T04:14:33;10.40;;;7.20;;
41311;SDS011;27061;41.648;24.568;2023-06-26T04:17:00;14.93;;;8.82;;
41311;SDS011;27061;41.648;24.568;2023-06-26T04:19:29;15.65;;;7.90;;
41311;SDS011;27061;41.648;24.568;2023-06-26T04:21:57;11.60;;;7.50;;
41311;SDS011;27061;41.648;24.568;2023-06-26T04:24:24;13.70;;;8.13;;
41311;SDS011;27061;41.648;24.568;2023-06-26T04:26:51;17.08;;;8.93;;
41311;SDS011;27061;41.648;24.568;2023-06-26T04:29:19;23.60;;;9.68;;
41311;SDS011;27061;41.648;24.568;2023-06-26T04:31:46;17.38;;;9.18;;
41311;SDS011;27061;41.648;24.568;2023-06-26T04:34:13;17.75;;;9.20;;
41311;SDS011;27061;41.648;24.568;2023-06-26T04:36:40;26.90;;;8.63;;
41311;SDS011;27061;41.648;24.568;2023-06-26T04:39:07;21.80;;;8.80;;
41311;SDS011;27061;41.648;24.568;2023-06-26T04:41:34;19.60;;;8.88;;
41311;SDS011;27061;41.648;24.568;2023-06-26T04:44:01;11.27;;;8.32;;
41311;SDS011;27061;41.648;24.568;2023-06-26T04:46:28;15.38;;;8.52;;
41311;SDS011;27061;41.648;24.568;2023-06-26T04:48:56;22.30;;;9.25;;
41311;SDS011;27061;41.648;24.568;2023-06-26T04:51:25;15.00;;;8.68;;
41311;SDS011;27061;41.648;24.568;2023-06-26T04:53:53;16.38;;;8.85;;
41311;SDS011;27061;41.648;24.568;2023-06-26T04:56:20;15.35;;;8.30;;
41311;SDS011;27061;41.648;24.568;2023-06-26T04:58:48;18.65;;;8.93;;
41311;SDS011;27061;41.648;24.568;2023-06-26T05:01:15;24.00;;;9.77;;
41311;SDS011;27061;41.648;24.568;2023-06-26T05:03:42;16.65;;;8.45;;
41311;SDS011;27061;41.648;24.568;2023-06-26T05:06:09;24.38;;;8.23;;
41311;SDS011;27061;41.648;24.568;2023-06-26T05:08:36;15.95;;;8.50;;
41311;SDS011;27061;41.648;24.568;2023-06-26T05:11:03;13.98;;;7.90;;
41311;SDS011;27061;41.648;24.568;2023-06-26T05:13:31;16.70;;;8.07;;
41311;SDS011;27061;41.648;24.568;2023-06-26T05:15:58;15.18;;;7.65;;
41311;SDS011;27061;41.648;24.568;2023-06-26T05:18:25;15.50;;;8.93;;
41311;SDS011;27061;41.648;24.568;2023-06-26T05:20:52;16.88;;;8.02;;
41311;SDS011;27061;41.648;24.568;2023-06-26T05:23:19;10.80;;;7.88;;
41311;SDS011;27061;41.648;24.568;2023-06-26T05:25:48;25.85;;;8.35;;
41311;SDS011;27061;41.648;24.568;2023-06-26T05:28:16;21.58;;;8.35;;
41311;SDS011;27061;41.648;24.568;2023-06-26T05:30:44;11.88;;;7.45;;
41311;SDS011;27061;41.648;24.568;2023-06-26T05:33:11;12.57;;;7.70;;
41311;SDS011;27061;41.648;24.568;2023-06-26T05:35:41;14.50;;;8.05;;
41311;SDS011;27061;41.648;24.568;2023-06-26T05:38:12;14.52;;;7.35;;
41311;SDS011;27061;41.648;24.568;2023-06-26T05:40:41;12.38;;;7.88;;
41311;SDS011;27061;41.648;24.568;2023-06-26T05:43:09;14.77;;;7.45;;
41311;SDS011;27061;41.648;24.568;2023-06-26T05:45:36;13.75;;;7.25;;
41311;SDS011;27061;41.648;24.568;2023-06-26T05:48:04;11.82;;;7.30;;
41311;SDS011;27061;41.648;24.568;2023-06-26T05:50:32;12.20;;;7.20;;
41311;SDS011;27061;41.648;24.568;2023-06-26T05:52:59;18.98;;;7.22;;
41311;SDS011;27061;41.648;24.568;2023-06-26T05:55:29;8.90;;;5.70;;
41311;SDS011;27061;41.648;24.568;2023-06-26T05:57:57;12.18;;;5.93;;
41311;SDS011;27061;41.648;24.568;2023-06-26T06:00:26;33.28;;;7.68;;
41311;SDS011;27061;41.648;24.568;2023-06-26T06:02:54;11.43;;;6.20;;
41311;SDS011;27061;41.648;24.568;2023-06-26T06:05:21;8.02;;;5.45;;
41311;SDS011;27061;41.648;24.568;2023-06-26T06:07:49;15.05;;;6.55;;
41311;SDS011;27061;41.648;24.568;2023-06-26T06:10:17;16.55;;;5.30;;
41311;SDS011;27061;41.648;24.568;2023-06-26T06:12:44;9.50;;;5.13;;
41311;SDS011;27061;41.648;24.568;2023-06-26T06:15:11;7.00;;;5.43;;
41311;SDS011;27061;41.648;24.568;2023-06-26T06:17:38;7.95;;;4.82;;
41311;SDS011;27061;41.648;24.568;2023-06-26T06:20:06;8.13;;;5.50;;
41311;SDS011;27061;41.648;24.568;2023-06-26T06:22:33;15.38;;;5.05;;
41311;SDS011;27061;41.648;24.568;2023-06-26T06:25:00;10.57;;;5.90;;
41311;SDS011;27061;41.648;24.568;2023-06-26T06:27:27;10.02;;;5.35;;
41311;SDS011;27061;41.648;24.568;2023-06-26T06:29:55;11.40;;;5.22;;
41311;SDS011;27061;41.648;24.568;2023-06-26T06:32:22;14.57;;;5.03;;
41311;SDS011;27061;41.648;24.568;2023-06-26T06:34:49;10.32;;;5.35;;
41311;SDS011;27061;41.648;24.568;2023-06-26T06:37:16;7.22;;;4.72;;
41311;SDS011;27061;41.648;24.568;2023-06-26T06:39:43;6.55;;;4.85;;
41311;SDS011;27061;41.648;24.568;2023-06-26T06:42:10;6.85;;;5.00;;
41311;SDS011;27061;41.648;24.568;2023-06-26T06:44:37;8.77;;;4.80;;
41311;SDS011;27061;41.648;24.568;2023-06-26T06:47:04;5.90;;;4.68;;
41311;SDS011;27061;41.648;24.568;2023-06-26T06:49:31;11.25;;;5.05;;
41311;SDS011;27061;41.648;24.568;2023-06-26T06:51:58;8.50;;;5.00;;
41311;SDS011;27061;41.648;24.568;2023-06-26T06:54:26;11.05;;;5.15;;
41311;SDS011;27061;41.648;24.568;2023-06-26T06:56:54;7.60;;;5.32;;
41311;SDS011;27061;41.648;24.568;2023-06-26T06:59:21;11.77;;;5.20;;
41311;SDS011;27061;41.648;24.568;2023-06-26T07:01:48;13.57;;;4.63;;
41311;SDS011;27061;41.648;24.568;2023-06-26T07:04:15;6.53;;;4.80;;
41311;SDS011;27061;41.648;24.568;2023-06-26T07:06:42;6.78;;;4.72;;
41311;SDS011;27061;41.648;24.568;2023-06-26T07:09:10;7.38;;;4.50;;
41311;SDS011;27061;41.648;24.568;2023-06-26T07:11:37;6.05;;;4.45;;
41311;SDS011;27061;41.648;24.568;2023-06-26T07:14:04;5.22;;;4.65;;
41311;SDS011;27061;41.648;24.568;2023-06-26T07:16:31;8.30;;;4.85;;
41311;SDS011;27061;41.648;24.568;2023-06-26T07:18:58;6.95;;;4.15;;
41311;SDS011;27061;41.648;24.568;2023-06-26T07:21:25;7.53;;;5.40;;
41311;SDS011;27061;41.648;24.568;2023-06-26T07:23:52;7.03;;;5.10;;
41311;SDS011;27061;41.648;24.568;2023-06-26T07:26:19;10.73;;;4.70;;
41311;SDS011;27061;41.648;24.568;2023-06-26T07:29:01;6.93;;;4.50;;
41311;SDS011;27061;41.648;24.568;2023-06-26T07:31:28;9.73;;;4.82;;
41311;SDS011;27061;41.648;24.568;2023-06-26T07:33:55;6.88;;;4.50;;
41311;SDS011;27061;41.648;24.568;2023-06-26T07:36:22;11.20;;;4.78;;
41311;SDS011;27061;41.648;24.568;2023-06-26T07:38:49;9.95;;;4.35;;
41311;SDS011;27061;41.648;24.568;2023-06-26T07:41:16;7.10;;;4.75;;
41311;SDS011;27061;41.648;24.568;2023-06-26T07:43:43;9.25;;;4.03;;
41311;SDS011;27061;41.648;24.568;2023-06-26T07:46:10;7.55;;;4.20;;
41311;SDS011;27061;41.648;24.568;2023-06-26T07:48:37;9.30;;;4.32;;
41311;SDS011;27061;41.648;24.568;2023-06-26T07:51:04;9.38;;;4.65;;
41311;SDS011;27061;41.648;24.568;2023-06-26T07:53:31;10.32;;;4.60;;
41311;SDS011;27061;41.648;24.568;2023-06-26T07:55:58;6.07;;;4.18;;
41311;SDS011;27061;41.648;24.568;2023-06-26T07:58:26;15.70;;;4.60;;
41311;SDS011;27061;41.648;24.568;2023-06-26T08:00:53;7.57;;;4.10;;
41311;SDS011;27061;41.648;24.568;2023-06-26T08:03:21;7.65;;;4.35;;
41311;SDS011;27061;41.648;24.568;2023-06-26T08:06:01;9.52;;;4.65;;
41311;SDS011;27061;41.648;24.568;2023-06-26T08:08:28;9.07;;;4.78;;
41311;SDS011;27061;41.648;24.568;2023-06-26T08:10:55;5.72;;;4.22;;
41311;SDS011;27061;41.648;24.568;2023-06-26T08:13:22;6.15;;;3.65;;
41311;SDS011;27061;41.648;24.568;2023-06-26T08:15:49;8.20;;;3.72;;
41311;SDS011;27061;41.648;24.568;2023-06-26T08:18:17;4.15;;;3.55;;
41311;SDS011;27061;41.648;24.568;2023-06-26T08:20:45;7.03;;;3.80;;
41311;SDS011;27061;41.648;24.568;2023-06-26T08:23:12;11.32;;;4.57;;
41311;SDS011;27061;41.648;24.568;2023-06-26T08:25:39;7.97;;;4.30;;
41311;SDS011;27061;41.648;24.568;2023-06-26T08:28:15;15.10;;;3.80;;
41311;SDS011;27061;41.648;24.568;2023-06-26T08:30:42;9.18;;;4.75;;
41311;SDS011;27061;41.648;24.568;2023-06-26T08:33:10;6.53;;;3.90;;
41311;SDS011;27061;41.648;24.568;2023-06-26T08:35:39;4.88;;;3.83;;
41311;SDS011;27061;41.648;24.568;2023-06-26T08:38:06;12.95;;;3.88;;
41311;SDS011;27061;41.648;24.568;2023-06-26T08:40:33;8.02;;;3.65;;
41311;SDS011;27061;41.648;24.568;2023-06-26T08:43:00;5.68;;;3.28;;
41311;SDS011;27061;41.648;24.568;2023-06-26T08:45:27;15.43;;;3.78;;
41311;SDS011;27061;41.648;24.568;2023-06-26T08:47:55;5.20;;;3.50;;
41311;SDS011;27061;41.648;24.568;2023-06-26T08:50:28;5.75;;;3.67;;
41311;SDS011;27061;41.648;24.568;2023-06-26T08:56:00;4.28;;;3.10;;
41311;SDS011;27061;41.648;24.568;2023-06-26T08:58:29;11.50;;;3.70;;
41311;SDS011;27061;41.648;24.568;2023-06-26T09:00:56;6.22;;;3.60;;
41311;SDS011;27061;41.648;24.568;2023-06-26T09:03:24;6.50;;;3.80;;
41311;SDS011;27061;41.648;24.568;2023-06-26T09:05:52;9.18;;;4.50;;
41311;SDS011;27061;41.648;24.568;2023-06-26T09:08:20;5.15;;;3.47;;
41311;SDS011;27061;41.648;24.568;2023-06-26T09:10:47;13.35;;;3.88;;
41311;SDS011;27061;41.648;24.568;2023-06-26T09:13:14;6.28;;;4.00;;
41311;SDS011;27061;41.648;24.568;2023-06-26T09:15:55;13.48;;;5.55;;
41311;SDS011;27061;41.648;24.568;2023-06-26T09:18:23;8.10;;;3.97;;
41311;SDS011;27061;41.648;24.568;2023-06-26T09:20:50;12.57;;;3.53;;
41311;SDS011;27061;41.648;24.568;2023-06-26T09:23:21;4.55;;;3.45;;
41311;SDS011;27061;41.648;24.568;2023-06-26T09:25:48;5.38;;;3.58;;
41311;SDS011;27061;41.648;24.568;2023-06-26T09:28:17;16.00;;;4.97;;
41311;SDS011;27061;41.648;24.568;2023-06-26T09:30:44;8.52;;;3.92;;
41311;SDS011;27061;41.648;24.568;2023-06-26T09:35:47;4.47;;;3.47;;
41311;SDS011;27061;41.648;24.568;2023-06-26T09:38:14;12.95;;;3.97;;
41311;SDS011;27061;41.648;24.568;2023-06-26T09:40:42;4.05;;;3.33;;
41311;SDS011;27061;41.648;24.568;2023-06-26T09:43:12;3.92;;;3.53;;
41311;SDS011;27061;41.648;24.568;2023-06-26T09:45:52;6.78;;;3.85;;
41311;SDS011;27061;41.648;24.568;2023-06-26T09:48:21;13.27;;;5.82;;
41311;SDS011;27061;41.648;24.568;2023-06-26T09:50:48;11.00;;;5.13;;
41311;SDS011;27061;41.648;24.568;2023-06-26T09:53:35;6.20;;;3.50;;
41311;SDS011;27061;41.648;24.568;2023-06-26T09:56:06;6.38;;;3.13;;
41311;SDS011;27061;41.648;24.568;2023-06-26T09:58:34;9.05;;;3.58;;
41311;SDS011;27061;41.648;24.568;2023-06-26T10:01:04;7.95;;;3.25;;
41311;SDS011;27061;41.648;24.568;2023-06-26T10:03:34;4.53;;;3.38;;
41311;SDS011;27061;41.648;24.568;2023-06-26T10:06:02;5.22;;;3.55;;
41311;SDS011;27061;41.648;24.568;2023-06-26T10:08:30;7.55;;;3.58;;
41311;SDS011;27061;41.648;24.568;2023-06-26T10:10:59;5.55;;;3.83;;
41311;SDS011;27061;41.648;24.568;2023-06-26T10:13:31;6.03;;;3.20;;
41311;SDS011;27061;41.648;24.568;2023-06-26T10:16:01;4.22;;;3.47;;
41311;SDS011;27061;41.648;24.568;2023-06-26T10:18:29;4.28;;;2.75;;
41311;SDS011;27061;41.648;24.568;2023-06-26T10:20:59;3.88;;;3.58;;
41311;SDS011;27061;41.648;24.568;2023-06-26T10:23:30;4.90;;;3.30;;
41311;SDS011;27061;41.648;24.568;2023-06-26T10:25:58;5.07;;;3.72;;
41311;SDS011;27061;41.648;24.568;2023-06-26T10:28:30;3.05;;;2.65;;
41311;SDS011;27061;41.648;24.568;2023-06-26T10:31:00;5.82;;;3.90;;
41311;SDS011;27061;41.648;24.568;2023-06-26T10:33:30;7.90;;;3.42;;
41311;SDS011;27061;41.648;24.568;2023-06-26T10:36:16;14.77;;;3.15;;
41311;SDS011;27061;41.648;24.568;2023-06-26T10:38:57;9.55;;;3.42;;
41311;SDS011;27061;41.648;24.568;2023-06-26T10:41:25;7.53;;;3.05;;
41311;SDS011;27061;41.648;24.568;2023-06-26T10:46:32;5.20;;;2.83;;
41311;SDS011;27061;41.648;24.568;2023-06-26T10:49:01;16.92;;;3.20;;
41311;SDS011;27061;41.648;24.568;2023-06-26T10:51:28;10.40;;;3.15;;
41311;SDS011;27061;41.648;24.568;2023-06-26T10:53:56;12.02;;;4.22;;
41311;SDS011;27061;41.648;24.568;2023-06-26T10:59:15;3.97;;;2.63;;
41311;SDS011;27061;41.648;24.568;2023-06-26T11:01:53;5.50;;;3.33;;
41311;SDS011;27061;41.648;24.568;2023-06-26T11:12:49;5.10;;;3.30;;
41311;SDS011;27061;41.648;24.568;2023-06-26T11:15:18;13.80;;;3.50;;
41311;SDS011;27061;41.648;24.568;2023-06-26T11:17:46;7.95;;;3.65;;
41311;SDS011;27061;41.648;24.568;2023-06-26T11:20:14;5.55;;;3.30;;
41311;SDS011;27061;41.648;24.568;2023-06-26T11:22:45;4.25;;;3.28;;
41311;SDS011;27061;41.648;24.568;2023-06-26T11:25:13;3.78;;;2.88;;
41311;SDS011;27061;41.648;24.568;2023-06-26T11:27:41;8.10;;;3.97;;
41311;SDS011;27061;41.648;24.568;2023-06-26T11:30:10;10.77;;;3.13;;
41311;SDS011;27061;41.648;24.568;2023-06-26T11:32:38;7.63;;;3.22;;
41311;SDS011;27061;41.648;24.568;2023-06-26T11:35:06;9.70;;;4.03;;
41311;SDS011;27061;41.648;24.568;2023-06-26T11:37:34;10.80;;;3.22;;
41311;SDS011;27061;41.648;24.568;2023-06-26T11:40:17;11.65;;;3.50;;
41311;SDS011;27061;41.648;24.568;2023-06-26T11:42:45;7.78;;;3.67;;
41311;SDS011;27061;41.648;24.568;2023-06-26T11:45:13;9.02;;;3.67;;
41311;SDS011;27061;41.648;24.568;2023-06-26T11:47:40;5.93;;;3.67;;
41311;SDS011;27061;41.648;24.568;2023-06-26T11:50:14;8.20;;;3.65;;
41311;SDS011;27061;41.648;24.568;2023-06-26T11:52:44;6.22;;;3.08;;
41311;SDS011;27061;41.648;24.568;2023-06-26T11:55:12;3.35;;;3.05;;
41311;SDS011;27061;41.648;24.568;2023-06-26T11:57:39;11.88;;;3.60;;
41311;SDS011;27061;41.648;24.568;2023-06-26T12:00:13;8.68;;;3.72;;
41311;SDS011;27061;41.648;24.568;2023-06-26T12:05:09;6.53;;;3.17;;
41311;SDS011;27061;41.648;24.568;2023-06-26T12:07:38;4.82;;;2.97;;
41311;SDS011;27061;41.648;24.568;2023-06-26T12:10:05;5.38;;;3.38;;
41311;SDS011;27061;41.648;24.568;2023-06-26T12:12:33;4.07;;;3.28;;
41311;SDS011;27061;41.648;24.568;2023-06-26T12:15:00;5.60;;;3.20;;
41311;SDS011;27061;41.648;24.568;2023-06-26T12:17:28;6.78;;;3.08;;
41311;SDS011;27061;41.648;24.568;2023-06-26T12:19:55;6.45;;;3.65;;
41311;SDS011;27061;41.648;24.568;2023-06-26T12:22:23;8.77;;;3.13;;
41311;SDS011;27061;41.648;24.568;2023-06-26T12:24:50;12.13;;;3.17;;
41311;SDS011;27061;41.648;24.568;2023-06-26T12:27:17;5.38;;;3.25;;
41311;SDS011;27061;41.648;24.568;2023-06-26T12:29:49;5.13;;;2.80;;
41311;SDS011;27061;41.648;24.568;2023-06-26T12:32:19;4.60;;;2.90;;
41311;SDS011;27061;41.648;24.568;2023-06-26T12:34:49;7.55;;;3.17;;
41311;SDS011;27061;41.648;24.568;2023-06-26T12:37:17;7.18;;;2.85;;
41311;SDS011;27061;41.648;24.568;2023-06-26T12:39:53;3.85;;;2.58;;
41311;SDS011;27061;41.648;24.568;2023-06-26T12:42:23;6.75;;;3.33;;
41311;SDS011;27061;41.648;24.568;2023-06-26T12:44:52;3.35;;;2.75;;
41311;SDS011;27061;41.648;24.568;2023-06-26T12:47:28;10.45;;;3.75;;
41311;SDS011;27061;41.648;24.568;2023-06-26T12:49:58;16.00;;;3.65;;
41311;SDS011;27061;41.648;24.568;2023-06-26T12:52:25;4.50;;;2.83;;
41311;SDS011;27061;41.648;24.568;2023-06-26T12:54:54;4.60;;;3.03;;
41311;SDS011;27061;41.648;24.568;2023-06-26T12:57:23;7.00;;;3.00;;
41311;SDS011;27061;41.648;24.568;2023-06-26T12:59:50;3.78;;;3.13;;
41311;SDS011;27061;41.648;24.568;2023-06-26T13:02:17;5.15;;;3.60;;
41311;SDS011;27061;41.648;24.568;2023-06-26T13:04:46;8.27;;;3.15;;
41311;SDS011;27061;41.648;24.568;2023-06-26T13:07:13;3.13;;;2.90;;
41311;SDS011;27061;41.648;24.568;2023-06-26T13:09:40;5.75;;;3.33;;
41311;SDS011;27061;41.648;24.568;2023-06-26T13:12:08;9.25;;;3.28;;
41311;SDS011;27061;41.648;24.568;2023-06-26T13:14:35;3.72;;;3.30;;
41311;SDS011;27061;41.648;24.568;2023-06-26T13:17:03;6.50;;;3.78;;
41311;SDS011;27061;41.648;24.568;2023-06-26T13:19:35;12.25;;;2.88;;
41311;SDS011;27061;41.648;24.568;2023-06-26T13:22:02;9.25;;;2.85;;
41311;SDS011;27061;41.648;24.568;2023-06-26T13:24:29;7.88;;;3.13;;
41311;SDS011;27061;41.648;24.568;2023-06-26T13:26:57;9.40;;;3.25;;
41311;SDS011;27061;41.648;24.568;2023-06-26T13:29:24;3.55;;;3.03;;
41311;SDS011;27061;41.648;24.568;2023-06-26T13:31:52;6.85;;;3.38;;
41311;SDS011;27061;41.648;24.568;2023-06-26T13:34:20;8.75;;;2.83;;
41311;SDS011;27061;41.648;24.568;2023-06-26T13:36:50;6.97;;;2.83;;
41311;SDS011;27061;41.648;24.568;2023-06-26T13:39:17;5.53;;;3.20;;
41311;SDS011;27061;41.648;24.568;2023-06-26T13:41:44;12.75;;;2.92;;
41311;SDS011;27061;41.648;24.568;2023-06-26T13:44:12;9.98;;;3.50;;
41311;SDS011;27061;41.648;24.568;2023-06-26T13:46:59;4.30;;;3.70;;
41311;SDS011;27061;41.648;24.568;2023-06-26T13:49:26;17.63;;;3.60;;
41311;SDS011;27061;41.648;24.568;2023-06-26T13:51:53;11.25;;;3.65;;
41311;SDS011;27061;41.648;24.568;2023-06-26T13:54:20;4.43;;;3.05;;
41311;SDS011;27061;41.648;24.568;2023-06-26T13:56:47;3.00;;;2.78;;
41311;SDS011;27061;41.648;24.568;2023-06-26T13:59:15;13.60;;;4.32;;
41311;SDS011;27061;41.648;24.568;2023-06-26T14:01:42;12.45;;;4.28;;
41311;SDS011;27061;41.648;24.568;2023-06-26T14:04:10;6.15;;;3.60;;
41311;SDS011;27061;41.648;24.568;2023-06-26T14:06:38;9.55;;;3.45;;
41311;SDS011;27061;41.648;24.568;2023-06-26T14:09:05;4.00;;;3.50;;
41311;SDS011;27061;41.648;24.568;2023-06-26T14:11:35;21.25;;;3.58;;
41311;SDS011;27061;41.648;24.568;2023-06-26T14:14:02;8.38;;;3.80;;
41311;SDS011;27061;41.648;24.568;2023-06-26T14:16:29;3.22;;;2.83;;
41311;SDS011;27061;41.648;24.568;2023-06-26T14:18:56;3.30;;;3.05;;
41311;SDS011;27061;41.648;24.568;2023-06-26T14:21:24;23.35;;;4.38;;
41311;SDS011;27061;41.648;24.568;2023-06-26T14:23:51;6.75;;;3.70;;
41311;SDS011;27061;41.648;24.568;2023-06-26T14:26:18;5.50;;;3.40;;
41311;SDS011;27061;41.648;24.568;2023-06-26T14:28:45;5.10;;;3.80;;
41311;SDS011;27061;41.648;24.568;2023-06-26T14:31:12;10.98;;;4.18;;
41311;SDS011;27061;41.648;24.568;2023-06-26T14:33:40;6.72;;;3.25;;
41311;SDS011;27061;41.648;24.568;2023-06-26T14:36:07;4.10;;;3.22;;
41311;SDS011;27061;41.648;24.568;2023-06-26T14:38:34;6.97;;;3.40;;
41311;SDS011;27061;41.648;24.568;2023-06-26T14:41:01;7.78;;;3.13;;
41311;SDS011;27061;41.648;24.568;2023-06-26T14:43:29;10.00;;;3.38;;
41311;SDS011;27061;41.648;24.568;2023-06-26T14:45:56;6.28;;;2.95;;
41311;SDS011;27061;41.648;24.568;2023-06-26T14:48:24;14.90;;;6.07;;
41311;SDS011;27061;41.648;24.568;2023-06-26T14:50:53;17.63;;;3.47;;
41311;SDS011;27061;41.648;24.568;2023-06-26T14:53:20;11.15;;;3.00;;
41311;SDS011;27061;41.648;24.568;2023-06-26T14:55:47;6.60;;;3.13;;
41311;SDS011;27061;41.648;24.568;2023-06-26T14:58:14;8.68;;;3.42;;